sensor_id;sensor_type;location;lat;lon;timestamp;pressure;altitude;pressure_sealevel;temperature;humidity
47815;BME280;33579;50.058;18.130;2023-08-06T00:00:14;98026.72;;;17.77;100.00
47815;BME280;33579;50.058;18.130;2023-08-06T00:01:16;98021.19;;;17.78;100.00
47815;BME280;33579;50.058;18.130;2023-08-06T00:02:18;98022.00;;;17.72;100.00
47815;BME280;33579;50.058;18.130;2023-08-06T00:03:20;98024.06;;;17.70;100.00
47815;BME280;33579;50.058;18.130;2023-08-06T00:04:22;98024.47;;;17.74;100.00
47815;BME280;33579;50.058;18.130;2023-08-06T00:05:23;98023.22;;;17.76;100.00
47815;BME280;33579;50.058;18.130;2023-08-06T00:06:25;98023.22;;;17.76;100.00
47815;BME280;33579;50.058;18.130;2023-08-06T00:07:27;98021.19;;;17.78;100.00
47815;BME280;33579;50.058;18.130;2023-08-06T00:08:29;98017.72;;;17.71;100.00
47815;BME280;33579;50.058;18.130;2023-08-06T00:09:30;98019.34;;;17.72;100.00
47815;BME280;33579;50.058;18.130;2023-08-06T00:10:32;98024.06;;;17.70;100.00
47815;BME280;33579;50.058;18.130;2023-08-06T00:11:34;98018.16;;;17.68;100.00
47815;BME280;33579;50.058;18.130;2023-08-06T00:12:36;98020.38;;;17.71;100.00
47815;BME280;33579;50.058;18.130;2023-08-06T00:13:37;98020.38;;;17.71;100.00
47815;BME280;33579;50.058;18.130;2023-08-06T00:14:39;98020.38;;;17.71;100.00
47815;BME280;33579;50.058;18.130;2023-08-06T00:15:41;98019.16;;;17.74;100.00
47815;BME280;33579;50.058;18.130;2023-08-06T00:16:43;98001.94;;;17.76;100.00
47815;BME280;33579;50.058;18.130;2023-08-06T00:17:45;97988.03;;;17.74;100.00
47815;BME280;33579;50.058;18.130;2023-08-06T00:18:47;97999.91;;;17.78;100.00
47815;BME280;33579;50.058;18.130;2023-08-06T00:19:49;97987.59;;;17.77;100.00
47815;BME280;33579;50.058;18.130;2023-08-06T00:20:52;97986.97;;;17.82;100.00
47815;BME280;33579;50.058;18.130;2023-08-06T00:21:54;97986.97;;;17.82;100.00
47815;BME280;33579;50.058;18.130;2023-08-06T00:22:55;97976.56;;;17.80;100.00
47815;BME280;33579;50.058;18.130;2023-08-06T00:23:57;97969.81;;;17.78;100.00
47815;BME280;33579;50.058;18.130;2023-08-06T00:24:59;97961.44;;;17.74;100.00
47815;BME280;33579;50.058;18.130;2023-08-06T00:26:01;97956.75;;;17.69;100.00
47815;BME280;33579;50.058;18.130;2023-08-06T00:27:03;97948.78;;;17.69;100.00
47815;BME280;33579;50.058;18.130;2023-08-06T00:28:05;97951.84;;;17.66;100.00
47815;BME280;33579;50.058;18.130;2023-08-06T00:29:06;97943.47;;;17.63;100.00
47815;BME280;33579;50.058;18.130;2023-08-06T00:30:08;97944.06;;;17.65;100.00
47815;BME280;33579;50.058;18.130;2023-08-06T00:31:10;97944.50;;;17.62;100.00
47815;BME280;33579;50.058;18.130;2023-08-06T00:32:12;97941.84;;;17.62;100.00
47815;BME280;33579;50.058;18.130;2023-08-06T00:33:13;97939.41;;;17.60;100.00
47815;BME280;33579;50.058;18.130;2023-08-06T00:34:15;97935.31;;;17.58;100.00
47815;BME280;33579;50.058;18.130;2023-08-06T00:35:17;97928.97;;;17.59;100.00
47815;BME280;33579;50.058;18.130;2023-08-06T00:36:18;97923.03;;;17.63;100.00
47815;BME280;33579;50.058;18.130;2023-08-06T00:37:20;97925.47;;;17.65;100.00
47815;BME280;33579;50.058;18.130;2023-08-06T00:38:22;97918.94;;;17.61;100.00
47815;BME280;33579;50.058;18.130;2023-08-06T00:39:23;97909.75;;;17.56;100.00
47815;BME280;33579;50.058;18.130;2023-08-06T00:40:25;97899.13;;;17.56;100.00
47815;BME280;33579;50.058;18.130;2023-08-06T00:41:28;97896.06;;;17.53;100.00
47815;BME280;33579;50.058;18.130;2023-08-06T00:42:30;97896.91;;;17.53;100.00
47815;BME280;33579;50.058;18.130;2023-08-06T00:43:31;97883.81;;;17.52;100.00
47815;BME280;33579;50.058;18.130;2023-08-06T00:44:33;97886.25;;;17.53;100.00
47815;BME280;33579;50.058;18.130;2023-08-06T00:45:36;97884.84;;;17.51;100.00
47815;BME280;33579;50.058;18.130;2023-08-06T00:46:38;97876.25;;;17.49;100.00
47815;BME280;33579;50.058;18.130;2023-08-06T00:47:41;97875.84;;;17.45;100.00
47815;BME280;33579;50.058;18.130;2023-08-06T00:48:43;97875.47;;;17.35;100.00
47815;BME280;33579;50.058;18.130;2023-08-06T00:49:45;97868.13;;;17.30;100.00
47815;BME280;33579;50.058;18.130;2023-08-06T00:50:47;97874.28;;;17.31;100.00
47815;BME280;33579;50.058;18.130;2023-08-06T00:51:49;97868.34;;;17.35;100.00
47815;BME280;33579;50.058;18.130;2023-08-06T00:52:52;97868.97;;;17.31;100.00
47815;BME280;33579;50.058;18.130;2023-08-06T00:53:54;97860.16;;;17.30;100.00
47815;BME280;33579;50.058;18.130;2023-08-06T00:54:56;97867.09;;;17.31;100.00
47815;BME280;33579;50.058;18.130;2023-08-06T00:55:58;97862.81;;;17.30;100.00
47815;BME280;33579;50.058;18.130;2023-08-06T00:57:01;97854.03;;;17.30;100.00
47815;BME280;33579;50.058;18.130;2023-08-06T00:58:04;97863.84;;;17.29;100.00
47815;BME280;33579;50.058;18.130;2023-08-06T00:59:06;97857.56;;;17.17;100.00
47815;BME280;33579;50.058;18.130;2023-08-06T01:00:08;97856.53;;;17.18;100.00
47815;BME280;33579;50.058;18.130;2023-08-06T01:01:10;97847.13;;;17.15;100.00
47815;BME280;33579;50.058;18.130;2023-08-06T01:02:12;97837.75;;;17.12;100.00
47815;BME280;33579;50.058;18.130;2023-08-06T01:03:14;97820.34;;;17.17;100.00
47815;BME280;33579;50.058;18.130;2023-08-06T01:04:16;97818.88;;;17.21;100.00
47815;BME280;33579;50.058;18.130;2023-08-06T01:05:18;97813.00;;;17.12;100.00
47815;BME280;33579;50.058;18.130;2023-08-06T01:06:28;97820.19;;;17.11;100.00
47815;BME280;33579;50.058;18.130;2023-08-06T01:15:08;97824.03;;;17.16;100.00
47815;BME280;33579;50.058;18.130;2023-08-06T01:16:18;97807.28;;;17.08;100.00
47815;BME280;33579;50.058;18.130;2023-08-06T01:17:20;97801.56;;;17.11;100.00
47815;BME280;33579;50.058;18.130;2023-08-06T01:18:22;97795.03;;;17.07;100.00
47815;BME280;33579;50.058;18.130;2023-08-06T01:19:24;97793.81;;;17.10;100.00
47815;BME280;33579;50.058;18.130;2023-08-06T01:20:29;97782.97;;;17.11;100.00
47815;BME280;33579;50.058;18.130;2023-08-06T01:21:31;97779.06;;;17.14;100.00
47815;BME280;33579;50.058;18.130;2023-08-06T01:22:33;97774.38;;;17.09;100.00
47815;BME280;33579;50.058;18.130;2023-08-06T01:23:35;97773.78;;;17.07;100.00
47815;BME280;33579;50.058;18.130;2023-08-06T01:24:37;97772.75;;;17.08;100.00
47815;BME280;33579;50.058;18.130;2023-08-06T01:25:49;97768.25;;;17.09;100.00
47815;BME280;33579;50.058;18.130;2023-08-06T01:27:22;97771.34;;;17.06;100.00
47815;BME280;33579;50.058;18.130;2023-08-06T01:30:08;97757.22;;;17.05;100.00
47815;BME280;33579;50.058;18.130;2023-08-06T01:31:27;97760.09;;;17.04;100.00
47815;BME280;33579;50.058;18.130;2023-08-06T01:32:34;97755.22;;;17.00;100.00
47815;BME280;33579;50.058;18.130;2023-08-06T01:33:39;97758.25;;;17.04;100.00
47815;BME280;33579;50.058;18.130;2023-08-06T01:34:46;97747.63;;;16.97;100.00
47815;BME280;33579;50.058;18.130;2023-08-06T01:35:49;97753.56;;;16.99;100.00
47815;BME280;33579;50.058;18.130;2023-08-06T01:36:52;97752.13;;;17.04;100.00
47815;BME280;33579;50.058;18.130;2023-08-06T01:37:54;97739.47;;;17.06;100.00
47815;BME280;33579;50.058;18.130;2023-08-06T01:38:56;97747.81;;;17.09;100.00
47815;BME280;33579;50.058;18.130;2023-08-06T01:39:59;97743.50;;;17.15;100.00
47815;BME280;33579;50.058;18.130;2023-08-06T01:41:00;97746.53;;;17.19;100.00
47815;BME280;33579;50.058;18.130;2023-08-06T01:42:02;97742.88;;;17.13;100.00
47815;BME280;33579;50.058;18.130;2023-08-06T01:43:04;97743.31;;;17.10;100.00
47815;BME280;33579;50.058;18.130;2023-08-06T01:44:06;97726.94;;;17.13;100.00
47815;BME280;33579;50.058;18.130;2023-08-06T01:45:08;97729.41;;;17.14;100.00
47815;BME280;33579;50.058;18.130;2023-08-06T01:46:10;97731.63;;;17.18;100.00
47815;BME280;33579;50.058;18.130;2023-08-06T01:47:12;97726.31;;;17.18;100.00
47815;BME280;33579;50.058;18.130;2023-08-06T01:48:14;97727.94;;;17.19;100.00
47815;BME280;33579;50.058;18.130;2023-08-06T01:49:15;97726.91;;;17.20;100.00
47815;BME280;33579;50.058;18.130;2023-08-06T01:50:17;97726.09;;;17.19;100.00
47815;BME280;33579;50.058;18.130;2023-08-06T01:51:19;97722.84;;;17.17;100.00
47815;BME280;33579;50.058;18.130;2023-08-06T01:52:21;97718.81;;;17.08;100.00
47815;BME280;33579;50.058;18.130;2023-08-06T01:53:22;97718.84;;;17.01;100.00
47815;BME280;33579;50.058;18.130;2023-08-06T01:54:26;97714.94;;;17.04;100.00
47815;BME280;33579;50.058;18.130;2023-08-06T01:55:29;97702.06;;;17.00;100.00
47815;BME280;33579;50.058;18.130;2023-08-06T01:56:32;97706.59;;;17.00;100.00
47815;BME280;33579;50.058;18.130;2023-08-06T01:57:34;97704.72;;;17.00;100.00
47815;BME280;33579;50.058;18.130;2023-08-06T01:58:36;97704.97;;;16.92;100.00
47815;BME280;33579;50.058;18.130;2023-08-06T01:59:37;97708.63;;;16.91;100.00
47815;BME280;33579;50.058;18.130;2023-08-06T02:00:40;97702.91;;;16.94;100.00
47815;BME280;33579;50.058;18.130;2023-08-06T02:01:42;97708.00;;;16.96;100.00
47815;BME280;33579;50.058;18.130;2023-08-06T02:02:44;97708.00;;;16.96;100.00
47815;BME280;33579;50.058;18.130;2023-08-06T02:03:45;97710.44;;;16.97;100.00
47815;BME280;33579;50.058;18.130;2023-08-06T02:04:47;97703.72;;;16.95;100.00
47815;BME280;33579;50.058;18.130;2023-08-06T02:05:49;97700.25;;;16.94;100.00
47815;BME280;33579;50.058;18.130;2023-08-06T02:06:52;97685.16;;;16.88;100.00
47815;BME280;33579;50.058;18.130;2023-08-06T02:07:54;97685.94;;;16.95;100.00
47815;BME280;33579;50.058;18.130;2023-08-06T02:08:55;97673.47;;;16.96;100.00
47815;BME280;33579;50.058;18.130;2023-08-06T02:09:57;97681.03;;;16.99;100.00
47815;BME280;33579;50.058;18.130;2023-08-06T02:10:59;97672.84;;;17.00;100.00
47815;BME280;33579;50.058;18.130;2023-08-06T02:12:01;97683.88;;;16.97;100.00
47815;BME280;33579;50.058;18.130;2023-08-06T02:13:03;97685.34;;;16.93;100.00
47815;BME280;33579;50.058;18.130;2023-08-06T02:14:05;97684.53;;;16.86;100.00
47815;BME280;33579;50.058;18.130;2023-08-06T02:15:07;97679.22;;;16.86;100.00
47815;BME280;33579;50.058;18.130;2023-08-06T02:16:09;97681.88;;;16.86;100.00
47815;BME280;33579;50.058;18.130;2023-08-06T02:17:10;97680.06;;;16.86;100.00
47815;BME280;33579;50.058;18.130;2023-08-06T02:18:12;97685.75;;;16.90;100.00
47815;BME280;33579;50.058;18.130;2023-08-06T02:19:14;97693.13;;;16.88;100.00
47815;BME280;33579;50.058;18.130;2023-08-06T02:20:16;97693.56;;;16.78;100.00
47815;BME280;33579;50.058;18.130;2023-08-06T02:21:18;97697.44;;;16.82;100.00
47815;BME280;33579;50.058;18.130;2023-08-06T02:22:19;97700.09;;;16.82;100.00
47815;BME280;33579;50.058;18.130;2023-08-06T02:23:22;97703.75;;;16.81;100.00
47815;BME280;33579;50.058;18.130;2023-08-06T02:24:23;97699.88;;;16.84;100.00
47815;BME280;33579;50.058;18.130;2023-08-06T02:25:25;97701.34;;;16.80;100.00
47815;BME280;33579;50.058;18.130;2023-08-06T02:26:27;97702.97;;;16.81;100.00
47815;BME280;33579;50.058;18.130;2023-08-06T02:27:30;97700.69;;;16.84;100.00
47815;BME280;33579;50.058;18.130;2023-08-06T02:28:32;97705.41;;;16.82;100.00
47815;BME280;33579;50.058;18.130;2023-08-06T02:29:33;97702.97;;;16.81;100.00
47815;BME280;33579;50.058;18.130;2023-08-06T02:30:35;97703.38;;;16.78;100.00
47815;BME280;33579;50.058;18.130;2023-08-06T02:31:37;97697.03;;;16.79;100.00
47815;BME280;33579;50.058;18.130;2023-08-06T02:32:40;97693.16;;;16.81;100.00
47815;BME280;33579;50.058;18.130;2023-08-06T02:33:41;97694.97;;;16.88;100.00
47815;BME280;33579;50.058;18.130;2023-08-06T02:34:43;97694.75;;;16.89;100.00
47815;BME280;33579;50.058;18.130;2023-08-06T02:35:45;97692.69;;;16.91;100.00
47815;BME280;33579;50.058;18.130;2023-08-06T02:36:46;97689.03;;;16.92;100.00
47815;BME280;33579;50.058;18.130;2023-08-06T02:37:48;97682.06;;;16.91;100.00
47815;BME280;33579;50.058;18.130;2023-08-06T02:38:50;97685.72;;;16.97;100.00
47815;BME280;33579;50.058;18.130;2023-08-06T02:39:52;97683.69;;;16.99;100.00
47815;BME280;33579;50.058;18.130;2023-08-06T02:40:53;97691.72;;;16.85;100.00
47815;BME280;33579;50.058;18.130;2023-08-06T02:41:57;97700.88;;;16.90;100.00
47815;BME280;33579;50.058;18.130;2023-08-06T02:42:59;97695.13;;;16.93;100.00
47815;BME280;33579;50.058;18.130;2023-08-06T02:44:00;97701.06;;;16.95;100.00
47815;BME280;33579;50.058;18.130;2023-08-06T02:45:02;97691.84;;;16.97;100.00
47815;BME280;33579;50.058;18.130;2023-08-06T02:46:04;97691.03;;;16.97;100.00
47815;BME280;33579;50.058;18.130;2023-08-06T02:47:06;97684.31;;;16.94;100.00
47815;BME280;33579;50.058;18.130;2023-08-06T02:48:08;97693.06;;;16.95;100.00
47815;BME280;33579;50.058;18.130;2023-08-06T02:49:09;97689.81;;;16.93;100.00
47815;BME280;33579;50.058;18.130;2023-08-06T02:50:11;97681.25;;;16.91;100.00
47815;BME280;33579;50.058;18.130;2023-08-06T02:51:13;97680.03;;;16.93;100.00
47815;BME280;33579;50.058;18.130;2023-08-06T02:52:14;97679.81;;;16.95;100.00
47815;BME280;33579;50.058;18.130;2023-08-06T02:53:16;97674.47;;;16.95;100.00
47815;BME280;33579;50.058;18.130;2023-08-06T02:54:19;97685.38;;;16.86;100.00
47815;BME280;33579;50.058;18.130;2023-08-06T02:55:21;97682.09;;;16.84;100.00
47815;BME280;33579;50.058;18.130;2023-08-06T02:56:24;97688.22;;;16.85;100.00
47815;BME280;33579;50.058;18.130;2023-08-06T02:57:40;97683.53;;;16.87;100.00
47815;BME280;33579;50.058;18.130;2023-08-06T02:58:42;97677.78;;;16.90;100.00
47815;BME280;33579;50.058;18.130;2023-08-06T02:59:54;97681.84;;;16.93;100.00
47815;BME280;33579;50.058;18.130;2023-08-06T03:01:04;97672.09;;;16.86;100.00
47815;BME280;33579;50.058;18.130;2023-08-06T03:02:13;97668.03;;;16.77;100.00
47815;BME280;33579;50.058;18.130;2023-08-06T03:03:27;97675.59;;;16.80;100.00
47815;BME280;33579;50.058;18.130;2023-08-06T03:04:32;97675.38;;;16.82;100.00
47815;BME280;33579;50.058;18.130;2023-08-06T03:05:34;97678.44;;;16.85;100.00
47815;BME280;33579;50.058;18.130;2023-08-06T03:06:36;97678.63;;;16.84;100.00
47815;BME280;33579;50.058;18.130;2023-08-06T03:07:38;97676.63;;;16.79;100.00
47815;BME280;33579;50.058;18.130;2023-08-06T03:08:47;97680.47;;;16.83;100.00
47815;BME280;33579;50.058;18.130;2023-08-06T03:09:49;97674.34;;;16.83;100.00
47815;BME280;33579;50.058;18.130;2023-08-06T03:10:51;97683.94;;;16.84;100.00
47815;BME280;33579;50.058;18.130;2023-08-06T03:11:53;97680.25;;;16.85;100.00
47815;BME280;33579;50.058;18.130;2023-08-06T03:12:56;97683.53;;;16.87;100.00
47815;BME280;33579;50.058;18.130;2023-08-06T03:13:57;97679.84;;;16.88;100.00
47815;BME280;33579;50.058;18.130;2023-08-06T03:15:00;97684.13;;;16.89;100.00
47815;BME280;33579;50.058;18.130;2023-08-06T03:16:02;97688.41;;;16.90;100.00
47815;BME280;33579;50.058;18.130;2023-08-06T03:17:05;97683.72;;;16.92;100.00
47815;BME280;33579;50.058;18.130;2023-08-06T03:18:06;97689.22;;;16.91;100.00
47815;BME280;33579;50.058;18.130;2023-08-06T03:19:08;97687.63;;;16.83;100.00
47815;BME280;33579;50.058;18.130;2023-08-06T03:20:10;97688.47;;;16.77;100.00
47815;BME280;33579;50.058;18.130;2023-08-06T03:21:12;97696.66;;;16.75;100.00
47815;BME280;33579;50.058;18.130;2023-08-06T03:22:14;97694.41;;;16.72;100.00
47815;BME280;33579;50.058;18.130;2023-08-06T03:23:15;97698.50;;;16.68;100.00
47815;BME280;33579;50.058;18.130;2023-08-06T03:24:17;97695.44;;;16.71;100.00
47815;BME280;33579;50.058;18.130;2023-08-06T03:25:20;97695.44;;;16.71;100.00
47815;BME280;33579;50.058;18.130;2023-08-06T03:26:23;97685.84;;;16.70;100.00
47815;BME280;33579;50.058;18.130;2023-08-06T03:27:25;97695.44;;;16.71;100.00
47815;BME280;33579;50.058;18.130;2023-08-06T03:28:27;97698.09;;;16.71;100.00
47815;BME280;33579;50.058;18.130;2023-08-06T03:29:29;97687.72;;;16.63;100.00
47815;BME280;33579;50.058;18.130;2023-08-06T03:30:34;97690.75;;;16.66;100.00
47815;BME280;33579;50.058;18.130;2023-08-06T03:31:36;97689.53;;;16.69;100.00
47815;BME280;33579;50.058;18.130;2023-08-06T03:32:38;97690.75;;;16.73;100.00
47815;BME280;33579;50.058;18.130;2023-08-06T03:33:39;97693.19;;;16.75;100.00
47815;BME280;33579;50.058;18.130;2023-08-06T03:34:46;97689.91;;;16.72;100.00
47815;BME280;33579;50.058;18.130;2023-08-06T03:35:48;97694.81;;;16.76;100.00
47815;BME280;33579;50.058;18.130;2023-08-06T03:36:52;97698.69;;;16.80;100.00
47815;BME280;33579;50.058;18.130;2023-08-06T03:37:53;97701.75;;;16.77;100.00
47815;BME280;33579;50.058;18.130;2023-08-06T03:38:55;97707.44;;;16.80;100.00
47815;BME280;33579;50.058;18.130;2023-08-06T03:39:57;97707.03;;;16.83;100.00
47815;BME280;33579;50.058;18.130;2023-08-06T03:40:58;97695.41;;;16.78;100.00
47815;BME280;33579;50.058;18.130;2023-08-06T03:42:00;97705.84;;;16.72;100.00
47815;BME280;33579;50.058;18.130;2023-08-06T03:43:02;97699.13;;;16.70;100.00
47815;BME280;33579;50.058;18.130;2023-08-06T03:44:04;97688.91;;;16.67;100.00
47815;BME280;33579;50.058;18.130;2023-08-06T03:45:06;97679.94;;;16.68;100.00
47815;BME280;33579;50.058;18.130;2023-08-06T03:46:08;97676.88;;;16.64;100.00
47815;BME280;33579;50.058;18.130;2023-08-06T03:47:10;97666.25;;;16.64;100.00
47815;BME280;33579;50.058;18.130;2023-08-06T03:48:12;97667.53;;;16.55;100.00
47815;BME280;33579;50.058;18.130;2023-08-06T03:49:14;97651.59;;;16.48;100.00
47815;BME280;33579;50.058;18.130;2023-08-06T03:50:16;97656.72;;;16.50;100.00
47815;BME280;33579;50.058;18.130;2023-08-06T03:51:17;97656.53;;;16.44;100.00
47815;BME280;33579;50.058;18.130;2023-08-06T03:52:21;97662.28;;;16.35;100.00
47815;BME280;33579;50.058;18.130;2023-08-06T03:53:23;97667.38;;;16.36;100.00
47815;BME280;33579;50.058;18.130;2023-08-06T03:54:25;97663.69;;;16.37;100.00
47815;BME280;33579;50.058;18.130;2023-08-06T03:56:52;97666.19;;;16.32;100.00
47815;BME280;33579;50.058;18.130;2023-08-06T03:57:54;97661.06;;;16.30;100.00
47815;BME280;33579;50.058;18.130;2023-08-06T03:58:56;97668.63;;;16.27;100.00
47815;BME280;33579;50.058;18.130;2023-08-06T03:59:58;97670.47;;;16.26;100.00
47815;BME280;33579;50.058;18.130;2023-08-06T04:01:03;97678.22;;;16.28;100.00
47815;BME280;33579;50.058;18.130;2023-08-06T04:02:25;97683.34;;;16.23;100.00
47815;BME280;33579;50.058;18.130;2023-08-06T04:03:27;97671.53;;;16.12;100.00
47815;BME280;33579;50.058;18.130;2023-08-06T04:04:29;97666.25;;;16.05;100.00
47815;BME280;33579;50.058;18.130;2023-08-06T04:05:32;97667.25;;;16.04;100.00
47815;BME280;33579;50.058;18.130;2023-08-06T04:06:33;97655.81;;;16.04;100.00
47815;BME280;33579;50.058;18.130;2023-08-06T04:07:35;97668.50;;;16.01;100.00
47815;BME280;33579;50.058;18.130;2023-08-06T04:08:37;97660.91;;;15.98;100.00
47815;BME280;33579;50.058;18.130;2023-08-06T04:09:58;97678.69;;;16.05;100.00
47815;BME280;33579;50.058;18.130;2023-08-06T04:11:00;97680.13;;;15.94;100.00
47815;BME280;33579;50.058;18.130;2023-08-06T04:12:02;97682.38;;;15.97;100.00
47815;BME280;33579;50.058;18.130;2023-08-06T04:13:04;97690.50;;;16.02;100.00
47815;BME280;33579;50.058;18.130;2023-08-06T04:14:06;97686.81;;;16.03;100.00
47815;BME280;33579;50.058;18.130;2023-08-06T04:15:08;97688.06;;;16.07;100.00
47815;BME280;33579;50.058;18.130;2023-08-06T04:16:09;97680.09;;;16.07;100.00
47815;BME280;33579;50.058;18.130;2023-08-06T04:17:11;97690.31;;;16.10;100.00
47815;BME280;33579;50.058;18.130;2023-08-06T04:18:13;97691.72;;;16.13;100.00
47815;BME280;33579;50.058;18.130;2023-08-06T04:19:15;97680.31;;;16.06;100.00
47815;BME280;33579;50.058;18.130;2023-08-06T04:20:17;97689.09;;;16.06;100.00
47815;BME280;33579;50.058;18.130;2023-08-06T04:21:18;97673.78;;;16.08;100.00
47815;BME280;33579;50.058;18.130;2023-08-06T04:22:21;97669.69;;;16.12;100.00
47815;BME280;33579;50.058;18.130;2023-08-06T04:23:23;97661.13;;;16.10;100.00
47815;BME280;33579;50.058;18.130;2023-08-06T04:24:28;97662.16;;;16.09;100.00
47815;BME280;33579;50.058;18.130;2023-08-06T04:25:29;97663.34;;;16.13;100.00
47815;BME280;33579;50.058;18.130;2023-08-06T04:26:31;97651.53;;;16.09;100.00
47815;BME280;33579;50.058;18.130;2023-08-06T04:27:34;97658.44;;;16.17;100.00
47815;BME280;33579;50.058;18.130;2023-08-06T04:28:36;97649.28;;;16.20;100.00
47815;BME280;33579;50.058;18.130;2023-08-06T04:29:37;97653.16;;;16.17;100.00
47815;BME280;33579;50.058;18.130;2023-08-06T04:30:40;97649.06;;;16.14;100.00
47815;BME280;33579;50.058;18.130;2023-08-06T04:31:43;97650.91;;;16.14;100.00
47815;BME280;33579;50.058;18.130;2023-08-06T04:32:44;97644.59;;;16.08;100.00
47815;BME280;33579;50.058;18.130;2023-08-06T04:33:46;97636.44;;;16.03;100.00
47815;BME280;33579;50.058;18.130;2023-08-06T04:34:50;97643.16;;;16.06;100.00
47815;BME280;33579;50.058;18.130;2023-08-06T04:35:55;97646.84;;;16.05;100.00
47815;BME280;33579;50.058;18.130;2023-08-06T04:36:59;97650.31;;;16.12;100.00
47815;BME280;33579;50.058;18.130;2023-08-06T04:38:01;97637.84;;;16.12;100.00
47815;BME280;33579;50.058;18.130;2023-08-06T04:39:03;97645.84;;;15.99;100.00
47815;BME280;33579;50.058;18.130;2023-08-06T04:40:06;97649.91;;;16.01;100.00
47815;BME280;33579;50.058;18.130;2023-08-06T04:41:07;97652.34;;;16.03;100.00
47815;BME280;33579;50.058;18.130;2023-08-06T04:42:09;97647.06;;;15.96;100.00
47815;BME280;33579;50.058;18.130;2023-08-06T04:43:11;97651.34;;;15.97;100.00
47815;BME280;33579;50.058;18.130;2023-08-06T04:44:13;97646.88;;;15.91;100.00
47815;BME280;33579;50.058;18.130;2023-08-06T04:45:14;97652.97;;;15.92;100.00
47815;BME280;33579;50.058;18.130;2023-08-06T04:46:16;97652.97;;;15.92;100.00
47815;BME280;33579;50.058;18.130;2023-08-06T04:47:18;97645.25;;;15.90;100.00
47815;BME280;33579;50.058;18.130;2023-08-06T04:48:19;97650.97;;;15.94;100.00
47815;BME280;33579;50.058;18.130;2023-08-06T04:49:21;97636.44;;;15.96;100.00
47815;BME280;33579;50.058;18.130;2023-08-06T04:50:23;97638.72;;;15.99;100.00
47815;BME280;33579;50.058;18.130;2023-08-06T04:51:24;97626.44;;;15.98;100.00
47815;BME280;33579;50.058;18.130;2023-08-06T04:52:26;97634.19;;;16.07;100.00
47815;BME280;33579;50.058;18.130;2023-08-06T04:53:28;97632.75;;;16.11;100.00
47815;BME280;33579;50.058;18.130;2023-08-06T04:54:30;97622.78;;;16.06;100.00
47815;BME280;33579;50.058;18.130;2023-08-06T04:55:31;97621.16;;;16.05;100.00
47815;BME280;33579;50.058;18.130;2023-08-06T04:56:33;97617.09;;;15.96;100.00
47815;BME280;33579;50.058;18.130;2023-08-06T04:57:34;97627.44;;;16.04;100.00
47815;BME280;33579;50.058;18.130;2023-08-06T04:58:36;97617.88;;;15.96;100.00
47815;BME280;33579;50.058;18.130;2023-08-06T04:59:40;97620.34;;;15.98;100.00
47815;BME280;33579;50.058;18.130;2023-08-06T05:00:42;97617.28;;;15.94;100.00
47815;BME280;33579;50.058;18.130;2023-08-06T05:01:44;97623.78;;;15.98;100.00
47815;BME280;33579;50.058;18.130;2023-08-06T05:02:46;97622.56;;;15.87;100.00
47815;BME280;33579;50.058;18.130;2023-08-06T05:03:47;97618.47;;;15.85;100.00
47815;BME280;33579;50.058;18.130;2023-08-06T05:04:49;97621.13;;;15.85;100.00
47815;BME280;33579;50.058;18.130;2023-08-06T05:05:51;97619.31;;;15.85;100.00
47815;BME280;33579;50.058;18.130;2023-08-06T05:06:52;97618.09;;;15.88;100.00
47815;BME280;33579;50.058;18.130;2023-08-06T05:07:55;97616.06;;;15.90;100.00
47815;BME280;33579;50.058;18.130;2023-08-06T05:08:57;97610.13;;;15.88;100.00
47815;BME280;33579;50.058;18.130;2023-08-06T05:09:58;97620.53;;;15.90;100.00
47815;BME280;33579;50.058;18.130;2023-08-06T05:11:00;97615.25;;;15.90;100.00
47815;BME280;33579;50.058;18.130;2023-08-06T05:12:03;97609.75;;;15.91;100.00
47815;BME280;33579;50.058;18.130;2023-08-06T05:13:05;97617.09;;;15.96;100.00
47815;BME280;33579;50.058;18.130;2023-08-06T05:14:06;97611.19;;;15.94;100.00
47815;BME280;33579;50.058;18.130;2023-08-06T05:15:08;97607.09;;;15.91;100.00
47815;BME280;33579;50.058;18.130;2023-08-06T05:16:10;97606.06;;;15.85;100.00
47815;BME280;33579;50.058;18.130;2023-08-06T05:17:12;97597.88;;;15.80;100.00
47815;BME280;33579;50.058;18.130;2023-08-06T05:18:13;97612.78;;;15.88;100.00
47815;BME280;33579;50.058;18.130;2023-08-06T05:19:15;97601.38;;;15.94;100.00
47815;BME280;33579;50.058;18.130;2023-08-06T05:20:17;97610.53;;;15.98;100.00
47815;BME280;33579;50.058;18.130;2023-08-06T05:21:18;97602.19;;;15.95;100.00
47815;BME280;33579;50.058;18.130;2023-08-06T05:22:20;97606.47;;;15.96;100.00
47815;BME280;33579;50.058;18.130;2023-08-06T05:23:22;97601.16;;;15.96;100.00
47815;BME280;33579;50.058;18.130;2023-08-06T05:24:23;97595.88;;;15.96;100.00
47815;BME280;33579;50.058;18.130;2023-08-06T05:25:25;97593.41;;;15.94;100.00
47815;BME280;33579;50.058;18.130;2023-08-06T05:26:27;97578.31;;;15.88;100.00
47815;BME280;33579;50.058;18.130;2023-08-06T05:27:28;97597.09;;;15.93;100.00
47815;BME280;33579;50.058;18.130;2023-08-06T05:28:30;97588.72;;;15.90;100.00
47815;BME280;33579;50.058;18.130;2023-08-06T05:29:31;97591.00;;;15.93;100.00
47815;BME280;33579;50.058;18.130;2023-08-06T05:30:33;97597.28;;;15.92;100.00
47815;BME280;33579;50.058;18.130;2023-08-06T05:31:35;97590.34;;;15.91;100.00
47815;BME280;33579;50.058;18.130;2023-08-06T05:32:37;97581.16;;;15.86;100.00
47815;BME280;33579;50.058;18.130;2023-08-06T05:33:39;97589.94;;;15.80;100.00